Latest Weather Observations for Williamson

IDQ60801

Issued at 8:02 pm EST Sunday 1 February 2015 (issued every 30 minutes, with the page automatically refreshed every 10 minutes)

About weather observations | Map of weather stations | Latest weather observations for QLD | Other Formats
Station Details ID: 033195 Name: WILLIAMSON Lat: -22.47 Lon: 150.18 Height: 27.6 m
Data from the previous 72 hours. | See also: Recent months at Williamson
Date/Time
EST
Temp
°C
App
Temp
°C
Dew
Point
Rel
Hum
%
Delta-T
°C
Wind Press
QNH
hPa
Press
MSL
hPa
Rain
since 9 am
mm
Dir
 
Spd
km/h
Gust
km/h
Spd
kts
Gust
kts
01/08:00pm 27.4 31.1 22.6 75 3.3 NNE 7 11 4 6 1005.5 1005.3 0.0
01/07:30pm 27.7 30.8 21.5 69 4.2 NNE 7 13 4 7 1005.4 1005.2 0.0
01/07:00pm 28.0 31.2 21.3 67 4.5 NNE 6 9 3 5 1005.2 1005.0 0.0
01/06:30pm 28.9 31.6 21.4 64 5.0 NNE 9 19 5 10 1005.0 1004.8 0.0
01/06:00pm 29.7 32.4 22.2 64 5.1 NNE 11 20 6 11 1004.7 1004.5 0.0
01/05:30pm 30.6 31.8 19.9 52 7.0 NNE 13 20 7 11 1004.3 1004.1 0.0
01/05:00pm 31.6 32.3 18.9 47 8.3 NNE 13 22 7 12 1004.0 1003.8 0.0
01/04:30pm 32.1 31.6 16.8 40 9.7 NNE 15 20 8 11 1004.0 1003.8 0.0
01/04:00pm 33.3 33.8 18.3 41 9.8 NNE 13 20 7 11 1003.9 1003.7 0.0
01/03:30pm 33.4 34.1 17.1 37 10.4 NNW 9 17 5 9 1004.0 1003.8 0.0
01/03:00pm 33.6 35.2 20.0 44 9.1 NNW 11 19 6 10 1004.1 1003.9 0.0
01/02:30pm 32.4 34.2 20.3 48 8.1 NNE 11 15 6 8 1004.5 1004.3 0.0
01/02:00pm 32.3 35.4 23.5 59 6.1 NNE 13 20 7 11 1004.9 1004.7 0.0
01/01:30pm 32.2 34.9 22.9 58 6.4 N 13 19 7 10 1005.2 1005.0 0.0
01/01:00pm 32.7 33.0 18.8 43 9.1 NW 15 24 8 13 1005.6 1005.4 0.0
01/12:30pm 32.5 33.7 19.0 44 8.8 NW 11 22 6 12 1005.9 1005.7 0.0
01/12:00pm 32.1 34.0 21.3 53 7.3 WNW 13 24 7 13 1006.4 1006.2 0.0
01/11:30am 32.4 35.5 21.0 51 7.7 S 6 15 3 8 1006.8 1006.6 0.0
01/11:00am 31.7 34.0 20.6 51 7.4 NW 9 17 5 9 1007.2 1007.0 0.0
01/10:30am 31.0 34.8 20.9 55 6.7 WSW 2 9 1 5 1007.5 1007.3 0.0
01/10:00am 30.6 32.1 18.0 47 8.1 NW 7 11 4 6 1007.8 1007.6 0.0
01/09:30am 29.8 31.6 19.5 54 6.7 WNW 9 13 5 7 1007.9 1007.7 0.0
01/09:00am 29.1 32.8 22.6 68 4.4 W 7 13 4 7 1008.0 1007.8 0.0
01/08:30am 28.4 31.3 21.7 67 4.5 NNW 9 17 5 9 1007.9 1007.7 0.0
01/08:00am 27.6 31.0 21.6 70 4.0 NNW 6 9 3 5 1007.8 1007.6 0.0
01/07:30am 26.7 31.4 21.9 75 3.2 CALM 0 0 0 0 1007.6 1007.4 0.0
01/07:00am 24.8 30.1 23.0 90 1.2 CALM 0 0 0 0 1007.3 1007.1 0.0
01/06:30am 23.4 28.5 22.7 96 0.5 CALM 0 0 0 0 1007.0 1006.8 0.0
01/06:00am 22.2 26.9 21.9 98 0.2 CALM 0 0 0 0 1006.7 1006.5 0.0
01/05:30am 22.2 26.9 21.9 98 0.2 CALM 0 0 0 0 1006.4 1006.2 0.0
01/05:00am 22.2 26.9 21.9 98 0.2 CALM 0 0 0 0 1006.2 1006.0 0.0
01/04:30am 22.4 27.2 22.1 98 0.2 CALM 0 0 0 0 1006.1 1005.9 0.0
01/04:00am 22.4 27.2 22.1 98 0.2 CALM 0 0 0 0 1006.0 1005.8 0.0
01/03:30am 22.5 27.3 22.2 98 0.2 CALM 0 0 0 0 1006.1 1005.9 0.0
01/03:00am 22.6 27.5 22.3 98 0.2 CALM 0 0 0 0 1006.0 1005.8 0.0
01/02:30am 22.6 27.4 22.1 97 0.3 CALM 0 0 0 0 1006.1 1005.9 0.0
01/02:00am 22.7 27.5 22.2 97 0.3 CALM 0 0 0 0 1006.4 1006.2 0.0
01/01:30am 23.0 28.1 22.7 98 0.2 CALM 0 0 0 0 1006.6 1006.4 0.0
01/01:00am 23.0 28.0 22.5 97 0.3 CALM 0 0 0 0 1006.9 1006.7 0.0
01/12:30am 23.3 28.3 22.5 95 0.5 CALM 0 0 0 0 1007.2 1007.0 0.0
01/12:00am 23.4 28.3 22.4 94 0.7 CALM 0 0 0 0 1007.5 1007.3 0.0
 
Date/Time
EST
Temp
°C
App
Temp
°C
Dew
Point
Rel
Hum
%
Delta-T
°C
Wind Press
QNH
hPa
Press
MSL
hPa
Rain
since 9 am
mm
Dir
 
Spd
km/h
Gust
km/h
Spd
kts
Gust
kts
31/11:30pm 23.5 28.6 22.7 95 0.5 CALM 0 0 0 0 1007.6 1007.4 0.0
31/11:00pm 24.0 29.3 23.0 94 0.7 CALM 0 0 0 0 1007.8 1007.6 0.0
31/10:30pm 24.0 28.9 22.3 90 1.1 CALM 0 0 0 0 1007.7 1007.5 0.0
31/10:00pm 24.5 29.9 23.3 93 0.8 CALM 0 0 0 0 1007.7 1007.5 0.0
31/09:30pm 24.7 29.9 22.8 89 1.3 CALM 0 0 0 0 1007.5 1007.3 0.0
31/09:00pm 25.1 30.3 22.8 87 1.6 CALM 0 0 0 0 1007.2 1007.0 0.0
31/08:30pm 25.4 30.4 22.5 84 2.0 CALM 0 6 0 3 1007.2 1007.0 0.0
31/08:00pm 25.8 30.8 22.5 82 2.2 CALM 0 2 0 1 1006.9 1006.7 0.0
31/07:30pm 26.4 31.5 22.7 80 2.5 CALM 0 0 0 0 1006.6 1006.4 0.0
31/07:00pm 26.9 30.6 22.5 77 3.0 NNE 7 13 4 7 1006.4 1006.2 0.0
31/06:30pm 27.6 30.3 22.1 72 3.7 NNE 11 19 6 10 1006.1 1005.9 0.0
31/06:00pm 28.3 31.1 22.3 70 4.1 NNE 11 20 6 11 1006.0 1005.8 0.0
31/05:30pm 28.8 31.7 22.5 68 4.3 NNE 11 19 6 10 1005.6 1005.4 0.0
31/05:00pm 29.0 31.3 22.0 66 4.7 NNE 13 26 7 14 1005.5 1005.3 0.0
31/04:30pm 29.3 31.3 22.3 66 4.7 NNE 15 26 8 14 1005.1 1004.9 0.0
31/04:00pm 30.0 32.0 22.2 63 5.3 NNE 15 22 8 12 1004.9 1004.7 0.0
31/03:30pm 30.6 32.7 22.5 62 5.5 NNE 15 24 8 13 1005.0 1004.8 0.0
31/03:00pm 30.5 32.4 22.1 61 5.7 NNE 15 22 8 12 1005.4 1005.2 0.0
31/02:30pm 30.5 32.8 22.1 61 5.7 NNE 13 24 7 13 1005.6 1005.4 0.0
31/02:00pm 30.4 32.0 21.5 59 6.0 NNE 15 22 8 12 1005.8 1005.6 0.0
31/01:30pm 32.1 34.5 20.0 48 8.0 W 7 22 4 12 1006.2 1006.0 0.0
31/01:00pm 31.3 33.8 20.3 52 7.3 W 7 11 4 6 1006.8 1006.6 0.0
31/12:30pm 30.7 33.7 20.9 56 6.5 ESE 6 11 3 6 1007.2 1007.0 0.0
31/12:00pm 30.1 32.9 21.5 60 5.8 W 9 17 5 9 1007.6 1007.4 0.0
31/11:30am 29.4 32.2 20.8 60 5.7 WNW 7 13 4 7 1008.2 1008.0 0.0
31/11:00am 29.5 32.3 20.4 58 6.0 NNE 6 9 3 5 1008.3 1008.1 0.0
31/10:30am 29.1 32.4 20.8 61 5.5 WNW 4 9 2 5 1008.5 1008.3 0.0
31/10:00am 28.9 30.8 19.8 58 6.0 NE 9 19 5 10 1008.4 1008.2 0.0
31/09:30am 28.9 32.1 20.4 60 5.6 ENE 4 15 2 8 1008.7 1008.5 0.0
31/09:00am 27.8 30.7 20.6 65 4.8 SW 6 11 3 6 1008.9 1008.7 34.4
31/08:30am 26.7 30.8 21.5 73 3.5 SSE 2 6 1 3 1008.8 1008.6 34.4
31/08:00am 25.9 29.4 21.8 78 2.7 S 6 9 3 5 1008.8 1008.6 34.4
31/07:30am 24.8 27.6 21.5 82 2.2 S 9 13 5 7 1008.9 1008.7 34.4
31/07:00am 23.2 26.0 21.6 91 1.1 SSW 9 13 5 7 1008.6 1008.4 34.4
31/06:30am 22.3 26.8 21.5 95 0.5 CALM 0 0 0 0 1008.2 1008.0 34.4
31/06:00am 21.1 25.2 20.8 98 0.2 CALM 0 0 0 0 1007.8 1007.6 34.4
31/05:30am 21.0 25.1 20.7 98 0.2 CALM 0 0 0 0 1007.5 1007.3 34.4
31/05:00am 21.1 24.1 20.8 98 0.2 SE 6 9 3 5 1007.5 1007.3 34.4
31/04:30am 21.1 25.2 20.8 98 0.2 CALM 0 0 0 0 1007.3 1007.1 34.4
31/04:00am 21.2 25.4 20.9 98 0.2 CALM 0 0 0 0 1007.3 1007.1 34.4
31/03:30am 21.2 24.2 20.9 98 0.2 S 6 9 3 5 1007.0 1006.8 34.4
31/03:00am 21.6 26.0 21.3 98 0.2 CALM 0 0 0 0 1006.8 1006.6 34.4
31/02:30am 21.7 26.1 21.4 98 0.2 CALM 0 0 0 0 1006.7 1006.5 34.4
31/02:00am 21.9 26.4 21.6 98 0.2 CALM 0 0 0 0 1007.1 1006.9 34.4
31/01:30am 22.0 26.6 21.7 98 0.2 CALM 0 6 0 3 1007.2 1007.0 34.4
31/01:00am 22.1 26.6 21.6 97 0.3 CALM 0 0 0 0 1007.6 1007.4 34.4
31/12:30am 22.4 27.2 22.1 98 0.2 CALM 0 0 0 0 1007.8 1007.6 34.4
31/12:00am 22.6 27.5 22.3 98 0.2 CALM 0 0 0 0 1008.0 1007.8 34.4
 
Date/Time
EST
Temp
°C
App
Temp
°C
Dew
Point
Rel
Hum
%
Delta-T
°C
Wind Press
QNH
hPa
Press
MSL
hPa
Rain
since 9 am
mm
Dir
 
Spd
km/h
Gust
km/h
Spd
kts
Gust
kts
30/11:30pm 22.5 27.2 22.0 97 0.3 CALM 0 6 0 3 1008.3 1008.1 34.4
30/11:00pm 22.8 27.6 22.1 96 0.5 CALM 0 0 0 0 1008.6 1008.4 34.4
30/10:30pm 23.1 27.9 22.1 94 0.7 CALM 0 0 0 0 1008.7 1008.5 34.4
30/10:00pm 23.2 27.8 21.8 92 0.9 CALM 0 0 0 0 1008.6 1008.4 34.4
30/09:30pm 23.7 28.1 21.4 87 1.5 CALM 0 6 0 3 1008.3 1008.1 34.4
30/09:00pm 24.5 28.3 21.0 81 2.3 E 2 7 1 4 1008.1 1007.9 34.4
30/08:30pm 25.1 27.7 20.4 75 3.1 ENE 7 13 4 7 1007.8 1007.6 34.4
30/08:00pm 25.4 28.1 20.6 75 3.2 ENE 7 13 4 7 1007.7 1007.5 34.4
30/07:30pm 25.8 28.4 20.4 72 3.5 E 7 9 4 5 1007.4 1007.2 34.4
30/07:00pm 26.2 28.3 20.1 69 4.0 ENE 9 15 5 8 1006.8 1006.6 34.4
30/06:30pm 26.8 28.5 20.2 67 4.3 ENE 11 19 6 10 1006.4 1006.2 34.4
30/06:00pm 27.4 28.9 20.5 66 4.6 E 13 22 7 12 1006.3 1006.1 34.4
30/05:30pm 28.1 29.3 20.6 63 5.0 ENE 15 24 8 13 1005.8 1005.6 34.4
30/05:00pm 28.6 29.8 20.6 62 5.3 E 15 28 8 15 1005.4 1005.2 34.4
30/04:30pm 28.8 30.5 21.0 62 5.2 ENE 13 24 7 13 1005.6 1005.4 34.4
30/04:00pm 28.2 29.6 21.0 65 4.8 ENE 15 28 8 15 1005.6 1005.4 34.4
30/03:30pm 27.8 31.5 23.2 76 3.1 ENE 9 17 5 9 1005.8 1005.6 34.4
30/03:00pm 26.1 29.3 22.4 80 2.5 ENE 9 17 5 9 1006.3 1006.1 34.4
30/02:30pm 23.5 24.5 21.8 90 1.1 ENE 19 41 10 22 1006.4 1006.2 34.4
30/02:00pm 23.7 24.8 22.3 92 0.9 NNW 20 39 11 21 1007.7 1007.5 17.6
30/01:30pm 27.1 28.2 21.2 70 3.9 ENE 17 32 9 17 1006.3 1006.1 0.2
30/01:00pm 27.2 28.1 21.5 71 3.8 ENE 19 28 10 15 1006.6 1006.4 0.2
30/12:30pm 29.4 30.5 20.5 58 5.9 E 15 24 8 13 1006.9 1006.7 0.0
30/12:00pm 29.2 30.6 20.4 59 5.8 ESE 13 24 7 13 1007.3 1007.1 0.0
30/11:30am 29.8 32.7 20.6 57 6.1 SE 6 13 3 7 1007.6 1007.4 0.0
30/11:00am 29.0 31.5 21.0 62 5.3 ESE 9 19 5 10 1008.0 1007.8 0.0
30/10:30am 28.7 31.8 21.0 63 5.1 ESE 6 11 3 6 1008.1 1007.9 0.0
30/10:00am 28.8 31.2 20.8 62 5.3 SE 9 17 5 9 1008.3 1008.1 0.0
30/09:30am 28.8 30.9 21.0 62 5.2 SSE 11 20 6 11 1008.2 1008.0 0.0
30/09:00am 28.2 31.4 21.7 68 4.4 SSE 7 13 4 7 1008.1 1007.9 0.6
30/08:30am 27.1 29.8 22.1 74 3.4 S 11 17 6 9 1007.9 1007.7 0.6
30/08:00am 25.7 27.9 21.8 79 2.6 S 13 19 7 10 1008.1 1007.9 0.6
30/07:30am 25.1 28.2 22.2 84 1.9 S 9 13 5 7 1008.1 1007.9 0.6
30/07:00am 23.3 25.8 22.5 95 0.5 S 13 20 7 11 1007.9 1007.7 0.6
30/06:30am 22.8 25.7 22.5 98 0.2 S 11 15 6 8 1007.5 1007.3 0.6
30/06:00am 22.6 25.4 22.3 98 0.2 S 11 15 6 8 1007.0 1006.8 0.6
30/05:30am 22.6 26.2 22.3 98 0.2 S 7 13 4 7 1006.6 1006.4 0.6
30/05:00am 22.6 26.3 22.3 98 0.2 S 6 9 3 5 1006.3 1006.1 0.6
30/04:30am 22.6 26.3 22.3 98 0.2 S 6 9 3 5 1006.1 1005.9 0.6
30/04:00am 22.7 26.4 22.2 97 0.3 S 6 9 3 5 1006.1 1005.9 0.6
30/03:30am 22.9 26.7 22.4 97 0.3 S 6 7 3 4 1006.2 1006.0 0.6
30/03:00am 22.9 27.0 22.2 96 0.5 S 4 9 2 5 1006.4 1006.2 0.6
30/02:30am 23.1 26.7 22.3 95 0.5 S 7 9 4 5 1006.6 1006.4 0.6
30/02:00am 23.2 26.7 21.8 92 0.9 SW 6 9 3 5 1007.0 1006.8 0.6
30/01:30am 23.6 27.4 21.7 89 1.3 SSW 4 7 2 4 1007.1 1006.9 0.6
30/01:00am 24.0 27.9 21.9 88 1.4 SW 4 9 2 5 1007.1 1006.9 0.6
30/12:30am 25.1 29.5 21.4 80 2.4 CALM 0 0 0 0 1007.4 1007.2 0.6
30/12:00am 25.6 28.7 21.5 78 2.7 ESE 7 13 4 7 1007.7 1007.5 0.6
 
Date/Time
EST
Temp
°C
App
Temp
°C
Dew
Point
Rel
Hum
%
Delta-T
°C
Wind Press
QNH
hPa
Press
MSL
hPa
Rain
since 9 am
mm
Dir
 
Spd
km/h
Gust
km/h
Spd
kts
Gust
kts
29/11:30pm 25.5 28.6 21.4 78 2.7 ESE 7 11 4 6 1007.9 1007.7 0.6
29/11:00pm 25.6 28.5 21.7 79 2.6 ESE 9 17 5 9 1008.0 1007.8 0.6
29/10:30pm 25.7 28.5 21.6 78 2.7 ESE 9 17 5 9 1007.9 1007.7 0.6
29/10:00pm 25.6 28.6 21.3 77 2.9 ESE 7 13 4 7 1008.0 1007.8 0.6
29/09:30pm 26.0 28.2 21.2 75 3.2 ESE 11 17 6 9 1007.7 1007.5 0.6
29/09:00pm 26.0 27.9 21.4 76 3.1 E 13 20 7 11 1007.4 1007.2 0.6
29/08:30pm 25.6 29.3 21.5 78 2.7 E 4 13 2 7 1007.3 1007.1 0.6

Other Formats:

Comma delimited format used in spreadsheet applications
http://www.bom.gov.au/fwo/IDQ60801/IDQ60801.95370.axf

JavaScript Object Notation format (JSON) in row-major order
http://www.bom.gov.au/fwo/IDQ60801/IDQ60801.95370.json